<?xml version="1.0" encoding="UTF-8" standalone="no" ?><gpx xmlns="http://www.topografix.com/GPX/1/1" xmlns:gpxx="http://www.garmin.com/xmlschemas/GpxExtensions/v3" xmlns:wptx1="http://www.garmin.com/xmlschemas/WaypointExtension/v1" xmlns:gpxtpx="http://www.garmin.com/xmlschemas/TrackPointExtension/v1" creator="GuideVTT.com" version="1.1" xmlns:xsi="http://www.w3.org/2001/XMLSchema-instance" xsi:schemaLocation="http://www.topografix.com/GPX/1/1 http://www.topografix.com/GPX/1/1/gpx.xsd http://www.garmin.com/xmlschemas/GpxExtensions/v3 http://www8.garmin.com/xmlschemas/GpxExtensionsv3.xsd http://www.garmin.com/xmlschemas/WaypointExtension/v1 http://www8.garmin.com/xmlschemas/WaypointExtensionv1.xsd http://www.garmin.com/xmlschemas/TrackPointExtension/v1 http://www.garmin.com/xmlschemas/TrackPointExtensionv1.xsd">
<metadata><link href="http://www.garmin.com"><text>Garmin International</text></link><time>2013-06-22T15:13:50Z</time></metadata>
<trk><name>reims_-_berry_au_bac.gpx</name><extensions><gpxx:TrackExtension><gpxx:DisplayColor>Cyan</gpxx:DisplayColor></gpxx:TrackExtension></extensions><trkseg>
<trkpt lat="49.219135284" lon="4.066420555"><ele></ele><time>2013-9-14T14:24:38Z</time></trkpt>
<trkpt lat="49.219276428" lon="4.066169739"><ele></ele><time>2013-9-14T14:24:41Z</time></trkpt>
<trkpt lat="49.219348907" lon="4.065702438"><ele></ele><time>2013-9-14T14:24:44Z</time></trkpt>
<trkpt lat="49.219337463" lon="4.065814018"><ele></ele><time>2013-9-14T14:24:47Z</time></trkpt>
<trkpt lat="49.219276428" lon="4.065838337"><ele></ele><time>2013-9-14T14:24:50Z</time></trkpt>
<trkpt lat="49.219181061" lon="4.065745831"><ele></ele><time>2013-9-14T14:24:53Z</time></trkpt>
<trkpt lat="49.219253540" lon="4.065841675"><ele></ele><time>2013-9-14T14:24:56Z</time></trkpt>
<trkpt lat="49.219329834" lon="4.065815926"><ele></ele><time>2013-9-14T14:24:59Z</time></trkpt>
<trkpt lat="49.219760895" lon="4.065973282"><ele></ele><time>2013-9-14T14:25:2Z</time></trkpt>
<trkpt lat="49.219917297" lon="4.065781593"><ele></ele><time>2013-9-14T14:25:5Z</time></trkpt>
<trkpt lat="49.220176697" lon="4.064825058"><ele></ele><time>2013-9-14T14:25:8Z</time></trkpt>
<trkpt lat="49.220573425" lon="4.064190388"><ele></ele><time>2013-9-14T14:25:11Z</time></trkpt>
<trkpt lat="49.220455170" lon="4.063417912"><ele></ele><time>2013-9-14T14:25:14Z</time></trkpt>
<trkpt lat="49.220645905" lon="4.062360287"><ele></ele><time>2013-9-14T14:25:17Z</time></trkpt>
<trkpt lat="49.221504211" lon="4.059939384"><ele></ele><time>2013-9-14T14:25:20Z</time></trkpt>
<trkpt lat="49.221931458" lon="4.058451653"><ele></ele><time>2013-9-14T14:25:23Z</time></trkpt>
<trkpt lat="49.222888947" lon="4.055786133"><ele></ele><time>2013-9-14T14:25:26Z</time></trkpt>
<trkpt lat="49.223468781" lon="4.054231644"><ele></ele><time>2013-9-14T14:25:29Z</time></trkpt>
<trkpt lat="49.223869324" lon="4.053494453"><ele></ele><time>2013-9-14T14:25:32Z</time></trkpt>
<trkpt lat="49.224258423" lon="4.051943779"><ele></ele><time>2013-9-14T14:25:35Z</time></trkpt>
<trkpt lat="49.224594116" lon="4.052047729"><ele></ele><time>2013-9-14T14:25:38Z</time></trkpt>
<trkpt lat="49.225711823" lon="4.052830696"><ele></ele><time>2013-9-14T14:25:41Z</time></trkpt>
<trkpt lat="49.226486206" lon="4.053549290"><ele></ele><time>2013-9-14T14:25:44Z</time></trkpt>
<trkpt lat="49.226764679" lon="4.053679943"><ele></ele><time>2013-9-14T14:25:47Z</time></trkpt>
<trkpt lat="49.227405548" lon="4.053564072"><ele></ele><time>2013-9-14T14:25:50Z</time></trkpt>
<trkpt lat="49.227863312" lon="4.053369522"><ele></ele><time>2013-9-14T14:25:53Z</time></trkpt>
<trkpt lat="49.229019165" lon="4.052409172"><ele></ele><time>2013-9-14T14:25:56Z</time></trkpt>
<trkpt lat="49.229660034" lon="4.052073956"><ele></ele><time>2013-9-14T14:25:59Z</time></trkpt>
<trkpt lat="49.230617523" lon="4.050093651"><ele></ele><time>2013-9-14T14:26:2Z</time></trkpt>
<trkpt lat="49.230945587" lon="4.048894882"><ele></ele><time>2013-9-14T14:26:5Z</time></trkpt>
<trkpt lat="49.231147766" lon="4.048606396"><ele></ele><time>2013-9-14T14:26:8Z</time></trkpt>
<trkpt lat="49.231384277" lon="4.048518181"><ele></ele><time>2013-9-14T14:26:11Z</time></trkpt>
<trkpt lat="49.231964111" lon="4.048591137"><ele></ele><time>2013-9-14T14:26:14Z</time></trkpt>
<trkpt lat="49.232433319" lon="4.048563957"><ele></ele><time>2013-9-14T14:26:17Z</time></trkpt>
<trkpt lat="49.232631683" lon="4.048433781"><ele></ele><time>2013-9-14T14:26:20Z</time></trkpt>
<trkpt lat="49.233013153" lon="4.047556400"><ele></ele><time>2013-9-14T14:26:23Z</time></trkpt>
<trkpt lat="49.233470917" lon="4.045688629"><ele></ele><time>2013-9-14T14:26:26Z</time></trkpt>
<trkpt lat="49.233711243" lon="4.044979095"><ele></ele><time>2013-9-14T14:26:29Z</time></trkpt>
<trkpt lat="49.234180450" lon="4.043978214"><ele></ele><time>2013-9-14T14:26:32Z</time></trkpt>
<trkpt lat="49.234508514" lon="4.043496132"><ele></ele><time>2013-9-14T14:26:35Z</time></trkpt>
<trkpt lat="49.236335754" lon="4.041241646"><ele></ele><time>2013-9-14T14:26:38Z</time></trkpt>
<trkpt lat="49.238033295" lon="4.039307117"><ele></ele><time>2013-9-14T14:26:41Z</time></trkpt>
<trkpt lat="49.240646362" lon="4.036569595"><ele></ele><time>2013-9-14T14:26:44Z</time></trkpt>
<trkpt lat="49.241130829" lon="4.036162853"><ele></ele><time>2013-9-14T14:26:47Z</time></trkpt>
<trkpt lat="49.241611481" lon="4.035560608"><ele></ele><time>2013-9-14T14:26:50Z</time></trkpt>
<trkpt lat="49.243007660" lon="4.034384251"><ele></ele><time>2013-9-14T14:26:53Z</time></trkpt>
<trkpt lat="49.243747711" lon="4.033597469"><ele></ele><time>2013-9-14T14:26:56Z</time></trkpt>
<trkpt lat="49.244842529" lon="4.031935215"><ele></ele><time>2013-9-14T14:26:59Z</time></trkpt>
<trkpt lat="49.245666504" lon="4.030502319"><ele></ele><time>2013-9-14T14:27:2Z</time></trkpt>
<trkpt lat="49.246154785" lon="4.029293060"><ele></ele><time>2013-9-14T14:27:5Z</time></trkpt>
<trkpt lat="49.248168945" lon="4.026029110"><ele></ele><time>2013-9-14T14:27:8Z</time></trkpt>
<trkpt lat="49.249359131" lon="4.024280548"><ele></ele><time>2013-9-14T14:27:11Z</time></trkpt>
<trkpt lat="49.250823975" lon="4.022369385"><ele></ele><time>2013-9-14T14:27:14Z</time></trkpt>
<trkpt lat="49.251178741" lon="4.021650314"><ele></ele><time>2013-9-14T14:27:17Z</time></trkpt>
<trkpt lat="49.251594543" lon="4.021090031"><ele></ele><time>2013-9-14T14:27:20Z</time></trkpt>
<trkpt lat="49.251964569" lon="4.020440578"><ele></ele><time>2013-9-14T14:27:23Z</time></trkpt>
<trkpt lat="49.252365112" lon="4.019874573"><ele></ele><time>2013-9-14T14:27:26Z</time></trkpt>
<trkpt lat="49.252773285" lon="4.019468784"><ele></ele><time>2013-9-14T14:27:29Z</time></trkpt>
<trkpt lat="49.253002167" lon="4.019519806"><ele></ele><time>2013-9-14T14:27:32Z</time></trkpt>
<trkpt lat="49.253337860" lon="4.019359112"><ele></ele><time>2013-9-14T14:27:35Z</time></trkpt>
<trkpt lat="49.253665924" lon="4.018992901"><ele></ele><time>2013-9-14T14:27:38Z</time></trkpt>
<trkpt lat="49.253810883" lon="4.018705845"><ele></ele><time>2013-9-14T14:27:41Z</time></trkpt>
<trkpt lat="49.254211426" lon="4.018537045"><ele></ele><time>2013-9-14T14:27:44Z</time></trkpt>
<trkpt lat="49.257064819" lon="4.012901783"><ele></ele><time>2013-9-14T14:27:47Z</time></trkpt>
<trkpt lat="49.258434296" lon="4.010545254"><ele></ele><time>2013-9-14T14:27:50Z</time></trkpt>
<trkpt lat="49.259929657" lon="4.007757664"><ele></ele><time>2013-9-14T14:27:53Z</time></trkpt>
<trkpt lat="49.263710022" lon="4.001682758"><ele></ele><time>2013-9-14T14:27:56Z</time></trkpt>
<trkpt lat="49.264167786" lon="4.001096725"><ele></ele><time>2013-9-14T14:27:59Z</time></trkpt>
<trkpt lat="49.265018463" lon="3.999690056"><ele></ele><time>2013-9-14T14:28:2Z</time></trkpt>
<trkpt lat="49.265483856" lon="3.999099970"><ele></ele><time>2013-9-14T14:28:5Z</time></trkpt>
<trkpt lat="49.265998840" lon="3.998559713"><ele></ele><time>2013-9-14T14:28:8Z</time></trkpt>
<trkpt lat="49.266796112" lon="3.997876406"><ele></ele><time>2013-9-14T14:28:11Z</time></trkpt>
<trkpt lat="49.267368317" lon="3.997560024"><ele></ele><time>2013-9-14T14:28:14Z</time></trkpt>
<trkpt lat="49.269180298" lon="3.997230291"><ele></ele><time>2013-9-14T14:28:17Z</time></trkpt>
<trkpt lat="49.269783020" lon="3.997189760"><ele></ele><time>2013-9-14T14:28:20Z</time></trkpt>
<trkpt lat="49.270065308" lon="3.997236252"><ele></ele><time>2013-9-14T14:28:23Z</time></trkpt>
<trkpt lat="49.270359039" lon="3.997193336"><ele></ele><time>2013-9-14T14:28:26Z</time></trkpt>
<trkpt lat="49.270641327" lon="3.997066259"><ele></ele><time>2013-9-14T14:28:29Z</time></trkpt>
<trkpt lat="49.271553040" lon="3.996951818"><ele></ele><time>2013-9-14T14:28:32Z</time></trkpt>
<trkpt lat="49.272472382" lon="3.996938944"><ele></ele><time>2013-9-14T14:28:35Z</time></trkpt>
<trkpt lat="49.272758484" lon="3.996820211"><ele></ele><time>2013-9-14T14:28:38Z</time></trkpt>
<trkpt lat="49.273246765" lon="3.996490240"><ele></ele><time>2013-9-14T14:28:41Z</time></trkpt>
<trkpt lat="49.273853302" lon="3.996284008"><ele></ele><time>2013-9-14T14:28:44Z</time></trkpt>
<trkpt lat="49.275604248" lon="3.996054888"><ele></ele><time>2013-9-14T14:28:47Z</time></trkpt>
<trkpt lat="49.275882721" lon="3.996070623"><ele></ele><time>2013-9-14T14:28:50Z</time></trkpt>
<trkpt lat="49.276405334" lon="3.996384144"><ele></ele><time>2013-9-14T14:28:53Z</time></trkpt>
<trkpt lat="49.277256012" lon="3.996534824"><ele></ele><time>2013-9-14T14:28:56Z</time></trkpt>
<trkpt lat="49.278133392" lon="3.996300936"><ele></ele><time>2013-9-14T14:28:59Z</time></trkpt>
<trkpt lat="49.279006958" lon="3.996225595"><ele></ele><time>2013-9-14T14:29:2Z</time></trkpt>
<trkpt lat="49.280178070" lon="3.995995998"><ele></ele><time>2013-9-14T14:29:5Z</time></trkpt>
<trkpt lat="49.282440186" lon="3.995769024"><ele></ele><time>2013-9-14T14:29:8Z</time></trkpt>
<trkpt lat="49.283016205" lon="3.995842934"><ele></ele><time>2013-9-14T14:29:11Z</time></trkpt>
<trkpt lat="49.283557892" lon="3.996040821"><ele></ele><time>2013-9-14T14:29:14Z</time></trkpt>
<trkpt lat="49.284824371" lon="3.996793509"><ele></ele><time>2013-9-14T14:29:17Z</time></trkpt>
<trkpt lat="49.289447784" lon="3.999300718"><ele></ele><time>2013-9-14T14:29:20Z</time></trkpt>
<trkpt lat="49.289985657" lon="3.999657869"><ele></ele><time>2013-9-14T14:29:23Z</time></trkpt>
<trkpt lat="49.290710449" lon="4.000290394"><ele></ele><time>2013-9-14T14:29:26Z</time></trkpt>
<trkpt lat="49.291488647" lon="4.001424313"><ele></ele><time>2013-9-14T14:29:29Z</time></trkpt>
<trkpt lat="49.292064667" lon="4.002686024"><ele></ele><time>2013-9-14T14:29:32Z</time></trkpt>
<trkpt lat="49.292602539" lon="4.002830982"><ele></ele><time>2013-9-14T14:29:35Z</time></trkpt>
<trkpt lat="49.292999268" lon="4.003790379"><ele></ele><time>2013-9-14T14:29:38Z</time></trkpt>
<trkpt lat="49.293064117" lon="4.004139423"><ele></ele><time>2013-9-14T14:29:41Z</time></trkpt>
<trkpt lat="49.293041229" lon="4.004980087"><ele></ele><time>2013-9-14T14:29:44Z</time></trkpt>
<trkpt lat="49.293491364" lon="4.006126404"><ele></ele><time>2013-9-14T14:29:47Z</time></trkpt>
<trkpt lat="49.293930054" lon="4.006998062"><ele></ele><time>2013-9-14T14:29:50Z</time></trkpt>
<trkpt lat="49.294837952" lon="4.008417606"><ele></ele><time>2013-9-14T14:29:53Z</time></trkpt>
<trkpt lat="49.295280457" lon="4.008966446"><ele></ele><time>2013-9-14T14:29:56Z</time></trkpt>
<trkpt lat="49.296104431" lon="4.009803772"><ele></ele><time>2013-9-14T14:29:59Z</time></trkpt>
<trkpt lat="49.297863007" lon="4.011081219"><ele></ele><time>2013-9-14T14:30:2Z</time></trkpt>
<trkpt lat="49.298641205" lon="4.011777878"><ele></ele><time>2013-9-14T14:30:5Z</time></trkpt>
<trkpt lat="49.299087524" lon="4.012023926"><ele></ele><time>2013-9-14T14:30:8Z</time></trkpt>
<trkpt lat="49.299903870" lon="4.012637615"><ele></ele><time>2013-9-14T14:30:11Z</time></trkpt>
<trkpt lat="49.301330566" lon="4.013259888"><ele></ele><time>2013-9-14T14:30:14Z</time></trkpt>
<trkpt lat="49.301506042" lon="4.013365269"><ele></ele><time>2013-9-14T14:30:17Z</time></trkpt>
<trkpt lat="49.301589966" lon="4.013525009"><ele></ele><time>2013-9-14T14:30:20Z</time></trkpt>
<trkpt lat="49.301742554" lon="4.013544083"><ele></ele><time>2013-9-14T14:30:23Z</time></trkpt>
<trkpt lat="49.303466797" lon="4.014660358"><ele></ele><time>2013-9-14T14:30:26Z</time></trkpt>
<trkpt lat="49.303672791" lon="4.014716625"><ele></ele><time>2013-9-14T14:30:29Z</time></trkpt>
<trkpt lat="49.304904938" lon="4.015517235"><ele></ele><time>2013-9-14T14:30:32Z</time></trkpt>
<trkpt lat="49.307662964" lon="4.017147064"><ele></ele><time>2013-9-14T14:30:35Z</time></trkpt>
<trkpt lat="49.308258057" lon="4.017427921"><ele></ele><time>2013-9-14T14:30:38Z</time></trkpt>
<trkpt lat="49.311035156" lon="4.019270897"><ele></ele><time>2013-9-14T14:30:41Z</time></trkpt>
<trkpt lat="49.313350677" lon="4.020678520"><ele></ele><time>2013-9-14T14:30:44Z</time></trkpt>
<trkpt lat="49.313892365" lon="4.021114349"><ele></ele><time>2013-9-14T14:30:47Z</time></trkpt>
<trkpt lat="49.314651489" lon="4.021482468"><ele></ele><time>2013-9-14T14:30:50Z</time></trkpt>
<trkpt lat="49.315322876" lon="4.021926403"><ele></ele><time>2013-9-14T14:30:53Z</time></trkpt>
<trkpt lat="49.316768646" lon="4.022707939"><ele></ele><time>2013-9-14T14:30:56Z</time></trkpt>
<trkpt lat="49.317375183" lon="4.022952080"><ele></ele><time>2013-9-14T14:30:59Z</time></trkpt>
<trkpt lat="49.318145752" lon="4.023109913"><ele></ele><time>2013-9-14T14:31:2Z</time></trkpt>
<trkpt lat="49.318565369" lon="4.023145676"><ele></ele><time>2013-9-14T14:31:5Z</time></trkpt>
<trkpt lat="49.319194794" lon="4.023159027"><ele></ele><time>2013-9-14T14:31:8Z</time></trkpt>
<trkpt lat="49.319744110" lon="4.023019314"><ele></ele><time>2013-9-14T14:31:11Z</time></trkpt>
<trkpt lat="49.320800781" lon="4.022558212"><ele></ele><time>2013-9-14T14:31:14Z</time></trkpt>
<trkpt lat="49.321357727" lon="4.022186279"><ele></ele><time>2013-9-14T14:31:17Z</time></trkpt>
<trkpt lat="49.321712494" lon="4.021818638"><ele></ele><time>2013-9-14T14:31:20Z</time></trkpt>
<trkpt lat="49.322448730" lon="4.021257401"><ele></ele><time>2013-9-14T14:31:23Z</time></trkpt>
<trkpt lat="49.322956085" lon="4.020775318"><ele></ele><time>2013-9-14T14:31:26Z</time></trkpt>
<trkpt lat="49.324104309" lon="4.019913197"><ele></ele><time>2013-9-14T14:31:29Z</time></trkpt>
<trkpt lat="49.325183868" lon="4.018836975"><ele></ele><time>2013-9-14T14:31:32Z</time></trkpt>
<trkpt lat="49.327003479" lon="4.017514229"><ele></ele><time>2013-9-14T14:31:35Z</time></trkpt>
<trkpt lat="49.327461243" lon="4.017018795"><ele></ele><time>2013-9-14T14:31:38Z</time></trkpt>
<trkpt lat="49.327743530" lon="4.016597748"><ele></ele><time>2013-9-14T14:31:41Z</time></trkpt>
<trkpt lat="49.327838898" lon="4.016361237"><ele></ele><time>2013-9-14T14:31:44Z</time></trkpt>
<trkpt lat="49.327888489" lon="4.015772820"><ele></ele><time>2013-9-14T14:31:47Z</time></trkpt>
<trkpt lat="49.328033447" lon="4.015258312"><ele></ele><time>2013-9-14T14:31:50Z</time></trkpt>
<trkpt lat="49.328392029" lon="4.014718533"><ele></ele><time>2013-9-14T14:31:53Z</time></trkpt>
<trkpt lat="49.328701019" lon="4.014553547"><ele></ele><time>2013-9-14T14:31:56Z</time></trkpt>
<trkpt lat="49.328781128" lon="4.014338970"><ele></ele><time>2013-9-14T14:31:59Z</time></trkpt>
<trkpt lat="49.328910828" lon="4.013787746"><ele></ele><time>2013-9-14T14:32:2Z</time></trkpt>
<trkpt lat="49.329105377" lon="4.012033939"><ele></ele><time>2013-9-14T14:32:5Z</time></trkpt>
<trkpt lat="49.329086304" lon="4.011497021"><ele></ele><time>2013-9-14T14:32:8Z</time></trkpt>
<trkpt lat="49.328933716" lon="4.010836124"><ele></ele><time>2013-9-14T14:32:11Z</time></trkpt>
<trkpt lat="49.329166412" lon="4.010403156"><ele></ele><time>2013-9-14T14:32:14Z</time></trkpt>
<trkpt lat="49.329368591" lon="4.007691860"><ele></ele><time>2013-9-14T14:32:17Z</time></trkpt>
<trkpt lat="49.329769135" lon="4.006064892"><ele></ele><time>2013-9-14T14:32:20Z</time></trkpt>
<trkpt lat="49.335487366" lon="3.993766546"><ele></ele><time>2013-9-14T14:32:23Z</time></trkpt>
<trkpt lat="49.336105347" lon="3.992592096"><ele></ele><time>2013-9-14T14:32:26Z</time></trkpt>
<trkpt lat="49.336605072" lon="3.991980791"><ele></ele><time>2013-9-14T14:32:29Z</time></trkpt>
<trkpt lat="49.336868286" lon="3.991751671"><ele></ele><time>2013-9-14T14:32:32Z</time></trkpt>
<trkpt lat="49.337718964" lon="3.991206169"><ele></ele><time>2013-9-14T14:32:35Z</time></trkpt>
<trkpt lat="49.338298798" lon="3.991011858"><ele></ele><time>2013-9-14T14:32:38Z</time></trkpt>
<trkpt lat="49.338592529" lon="3.990990400"><ele></ele><time>2013-9-14T14:32:41Z</time></trkpt>
<trkpt lat="49.340030670" lon="3.991075754"><ele></ele><time>2013-9-14T14:32:44Z</time></trkpt>
<trkpt lat="49.340637207" lon="3.991025209"><ele></ele><time>2013-9-14T14:32:47Z</time></trkpt>
<trkpt lat="49.341506958" lon="3.990619183"><ele></ele><time>2013-9-14T14:32:50Z</time></trkpt>
<trkpt lat="49.341766357" lon="3.990436316"><ele></ele><time>2013-9-14T14:32:53Z</time></trkpt>
<trkpt lat="49.342239380" lon="3.989948511"><ele></ele><time>2013-9-14T14:32:56Z</time></trkpt>
<trkpt lat="49.343276978" lon="3.988574982"><ele></ele><time>2013-9-14T14:32:59Z</time></trkpt>
<trkpt lat="49.344696045" lon="3.986494064"><ele></ele><time>2013-9-14T14:33:2Z</time></trkpt>
<trkpt lat="49.344841003" lon="3.986020803"><ele></ele><time>2013-9-14T14:33:5Z</time></trkpt>
<trkpt lat="49.344848633" lon="3.985597372"><ele></ele><time>2013-9-14T14:33:8Z</time></trkpt>
<trkpt lat="49.345874786" lon="3.984216213"><ele></ele><time>2013-9-14T14:33:11Z</time></trkpt>
<trkpt lat="49.346000671" lon="3.984214544"><ele></ele><time>2013-9-14T14:33:14Z</time></trkpt>
<trkpt lat="49.346435547" lon="3.983856916"><ele></ele><time>2013-9-14T14:33:17Z</time></trkpt>
<trkpt lat="49.347217560" lon="3.982492924"><ele></ele><time>2013-9-14T14:33:20Z</time></trkpt>
<trkpt lat="49.347702026" lon="3.981350183"><ele></ele><time>2013-9-14T14:33:23Z</time></trkpt>
<trkpt lat="49.348690033" lon="3.978468657"><ele></ele><time>2013-9-14T14:33:26Z</time></trkpt>
<trkpt lat="49.349727631" lon="3.975911379"><ele></ele><time>2013-9-14T14:33:29Z</time></trkpt>
<trkpt lat="49.350742340" lon="3.973091602"><ele></ele><time>2013-9-14T14:33:32Z</time></trkpt>
<trkpt lat="49.351493835" lon="3.971662760"><ele></ele><time>2013-9-14T14:33:35Z</time></trkpt>
<trkpt lat="49.352191925" lon="3.970821142"><ele></ele><time>2013-9-14T14:33:38Z</time></trkpt>
<trkpt lat="49.352954865" lon="3.970175505"><ele></ele><time>2013-9-14T14:33:41Z</time></trkpt>
<trkpt lat="49.353782654" lon="3.969628334"><ele></ele><time>2013-9-14T14:33:44Z</time></trkpt>
<trkpt lat="49.355243683" lon="3.968879700"><ele></ele><time>2013-9-14T14:33:47Z</time></trkpt>
<trkpt lat="49.355808258" lon="3.968484163"><ele></ele><time>2013-9-14T14:33:50Z</time></trkpt>
<trkpt lat="49.356582642" lon="3.967669010"><ele></ele><time>2013-9-14T14:33:53Z</time></trkpt>
<trkpt lat="49.357227325" lon="3.966635704"><ele></ele><time>2013-9-14T14:33:56Z</time></trkpt>
<trkpt lat="49.357566833" lon="3.965837002"><ele></ele><time>2013-9-14T14:33:59Z</time></trkpt>
<trkpt lat="49.358062744" lon="3.964090824"><ele></ele><time>2013-9-14T14:34:2Z</time></trkpt>
<trkpt lat="49.361198425" lon="3.951064110"><ele></ele><time>2013-9-14T14:34:5Z</time></trkpt>
<trkpt lat="49.361831665" lon="3.948808193"><ele></ele><time>2013-9-14T14:34:8Z</time></trkpt>
<trkpt lat="49.367359161" lon="3.933800936"><ele></ele><time>2013-9-14T14:34:11Z</time></trkpt>
<trkpt lat="49.367710114" lon="3.932961464"><ele></ele><time>2013-9-14T14:34:14Z</time></trkpt>
<trkpt lat="49.368465424" lon="3.931581736"><ele></ele><time>2013-9-14T14:34:17Z</time></trkpt>
<trkpt lat="49.369411469" lon="3.930297136"><ele></ele><time>2013-9-14T14:34:20Z</time></trkpt>
<trkpt lat="49.374706268" lon="3.923710823"><ele></ele><time>2013-9-14T14:34:23Z</time></trkpt>
<trkpt lat="49.374912262" lon="3.923377037"><ele></ele><time>2013-9-14T14:34:26Z</time></trkpt>
<trkpt lat="49.374935150" lon="3.922914505"><ele></ele><time>2013-9-14T14:34:29Z</time></trkpt>
<trkpt lat="49.375106812" lon="3.922584534"><ele></ele><time>2013-9-14T14:34:32Z</time></trkpt>
<trkpt lat="49.375698090" lon="3.922068596"><ele></ele><time>2013-9-14T14:34:35Z</time></trkpt>
<trkpt lat="49.375930786" lon="3.921978235"><ele></ele><time>2013-9-14T14:34:38Z</time></trkpt>
<trkpt lat="49.376987457" lon="3.921964407"><ele></ele><time>2013-9-14T14:34:41Z</time></trkpt>
<trkpt lat="49.377296448" lon="3.922561407"><ele></ele><time>2013-9-14T14:34:44Z</time></trkpt>
<trkpt lat="49.392013550" lon="3.926388264"><ele></ele><time>2013-9-14T14:34:47Z</time></trkpt>
<trkpt lat="49.392917633" lon="3.926477671"><ele></ele><time>2013-9-14T14:34:50Z</time></trkpt>
<trkpt lat="49.393489838" lon="3.926389217"><ele></ele><time>2013-9-14T14:34:53Z</time></trkpt>
<trkpt lat="49.394012451" lon="3.926153421"><ele></ele><time>2013-9-14T14:34:56Z</time></trkpt>
<trkpt lat="49.394802094" lon="3.925587893"><ele></ele><time>2013-9-14T14:34:59Z</time></trkpt>
<trkpt lat="49.395275116" lon="3.924914598"><ele></ele><time>2013-9-14T14:35:2Z</time></trkpt>
<trkpt lat="49.395454407" lon="3.924546242"><ele></ele><time>2013-9-14T14:35:5Z</time></trkpt>
<trkpt lat="49.395809174" lon="3.923368216"><ele></ele><time>2013-9-14T14:35:8Z</time></trkpt>
<trkpt lat="49.397087097" lon="3.917087317"><ele></ele><time>2013-9-14T14:35:11Z</time></trkpt>
<trkpt lat="49.397335052" lon="3.915184021"><ele></ele><time>2013-9-14T14:35:14Z</time></trkpt>
<trkpt lat="49.397174835" lon="3.913455486"><ele></ele><time>2013-9-14T14:35:17Z</time></trkpt>
<trkpt lat="49.396514893" lon="3.910820007"><ele></ele><time>2013-9-14T14:35:20Z</time></trkpt>
<trkpt lat="49.396354675" lon="3.909905672"><ele></ele><time>2013-9-14T14:35:23Z</time></trkpt>
<trkpt lat="49.396301270" lon="3.908936977"><ele></ele><time>2013-9-14T14:35:26Z</time></trkpt>
<trkpt lat="49.396415710" lon="3.908031464"><ele></ele><time>2013-9-14T14:35:29Z</time></trkpt>
<trkpt lat="49.396778107" lon="3.906710863"><ele></ele><time>2013-9-14T14:35:32Z</time></trkpt>
<trkpt lat="49.397727966" lon="3.905740976"><ele></ele><time>2013-9-14T14:35:35Z</time></trkpt>
<trkpt lat="49.398719788" lon="3.905021667"><ele></ele><time>2013-9-14T14:35:38Z</time></trkpt>
<trkpt lat="49.398826599" lon="3.904901505"><ele></ele><time>2013-9-14T14:35:41Z</time></trkpt>
<trkpt lat="49.398815155" lon="3.904766083"><ele></ele><time>2013-9-14T14:35:44Z</time></trkpt>
<trkpt lat="49.398708344" lon="3.904995441"><ele></ele><time>2013-9-14T14:35:47Z</time></trkpt>
<trkpt lat="49.398509979" lon="3.905175686"><ele></ele><time>2013-9-14T14:35:50Z</time></trkpt>
<trkpt lat="49.397895813" lon="3.905581951"><ele></ele><time>2013-9-14T14:35:53Z</time></trkpt>
<trkpt lat="49.397487640" lon="3.905935764"><ele></ele><time>2013-9-14T14:35:56Z</time></trkpt>
<trkpt lat="49.397171021" lon="3.906398535"><ele></ele><time>2013-9-14T14:35:59Z</time></trkpt>
<trkpt lat="49.396926880" lon="3.906563520"><ele></ele><time>2013-9-14T14:36:2Z</time></trkpt>
<trkpt lat="49.396732330" lon="3.906829357"><ele></ele><time>2013-9-14T14:36:5Z</time></trkpt>
<trkpt lat="49.396438599" lon="3.907392025"><ele></ele><time>2013-9-14T14:36:8Z</time></trkpt>
<trkpt lat="49.396221161" lon="3.909003019"><ele></ele><time>2013-9-14T14:36:11Z</time></trkpt>
<trkpt lat="49.396331787" lon="3.910465956"><ele></ele><time>2013-9-14T14:36:14Z</time></trkpt>
<trkpt lat="49.397155762" lon="3.914090872"><ele></ele><time>2013-9-14T14:36:17Z</time></trkpt>
<trkpt lat="49.397232056" lon="3.914871693"><ele></ele><time>2013-9-14T14:36:20Z</time></trkpt>
<trkpt lat="49.397216797" lon="3.915675402"><ele></ele><time>2013-9-14T14:36:23Z</time></trkpt>
<trkpt lat="49.396907806" lon="3.917612791"><ele></ele><time>2013-9-14T14:36:26Z</time></trkpt>
<trkpt lat="49.396705627" lon="3.918786049"><ele></ele><time>2013-9-14T14:36:29Z</time></trkpt>
<trkpt lat="49.395744324" lon="3.923341513"><ele></ele><time>2013-9-14T14:36:32Z</time></trkpt>
<trkpt lat="49.395248413" lon="3.924727678"><ele></ele><time>2013-9-14T14:36:35Z</time></trkpt>
<trkpt lat="49.394844055" lon="3.925292969"><ele></ele><time>2013-9-14T14:36:38Z</time></trkpt>
<trkpt lat="49.394393921" lon="3.925784826"><ele></ele><time>2013-9-14T14:36:41Z</time></trkpt>
<trkpt lat="49.393898010" lon="3.926120758"><ele></ele><time>2013-9-14T14:36:44Z</time></trkpt>
<trkpt lat="49.393367767" lon="3.926321268"><ele></ele><time>2013-9-14T14:36:47Z</time></trkpt>
<trkpt lat="49.392826080" lon="3.926384449"><ele></ele><time>2013-9-14T14:36:50Z</time></trkpt>
<trkpt lat="49.392288208" lon="3.926303387"><ele></ele><time>2013-9-14T14:36:53Z</time></trkpt>
<trkpt lat="49.390125275" lon="3.925796747"><ele></ele><time>2013-9-14T14:36:56Z</time></trkpt>
<trkpt lat="49.382064819" lon="3.923665285"><ele></ele><time>2013-9-14T14:36:59Z</time></trkpt>
<trkpt lat="49.377410889" lon="3.922507524"><ele></ele><time>2013-9-14T14:37:2Z</time></trkpt>
<trkpt lat="49.377189636" lon="3.922356844"><ele></ele><time>2013-9-14T14:37:5Z</time></trkpt>
<trkpt lat="49.377113342" lon="3.921963930"><ele></ele><time>2013-9-14T14:37:8Z</time></trkpt>
<trkpt lat="49.376846313" lon="3.921873569"><ele></ele><time>2013-9-14T14:37:11Z</time></trkpt>
<trkpt lat="49.375740051" lon="3.921923161"><ele></ele><time>2013-9-14T14:37:14Z</time></trkpt>
<trkpt lat="49.374885559" lon="3.922752619"><ele></ele><time>2013-9-14T14:37:17Z</time></trkpt>
<trkpt lat="49.374797821" lon="3.923427105"><ele></ele><time>2013-9-14T14:37:20Z</time></trkpt>
<trkpt lat="49.368442535" lon="3.931497335"><ele></ele><time>2013-9-14T14:37:23Z</time></trkpt>
<trkpt lat="49.368076324" lon="3.932120562"><ele></ele><time>2013-9-14T14:37:26Z</time></trkpt>
<trkpt lat="49.367397308" lon="3.933537006"><ele></ele><time>2013-9-14T14:37:29Z</time></trkpt>
<trkpt lat="49.361690521" lon="3.949134111"><ele></ele><time>2013-9-14T14:37:32Z</time></trkpt>
<trkpt lat="49.360767365" lon="3.952663422"><ele></ele><time>2013-9-14T14:37:35Z</time></trkpt>
<trkpt lat="49.357917786" lon="3.964566946"><ele></ele><time>2013-9-14T14:37:38Z</time></trkpt>
<trkpt lat="49.357715607" lon="3.965302229"><ele></ele><time>2013-9-14T14:37:41Z</time></trkpt>
<trkpt lat="49.357318878" lon="3.966342449"><ele></ele><time>2013-9-14T14:37:44Z</time></trkpt>
<trkpt lat="49.356807709" lon="3.967252493"><ele></ele><time>2013-9-14T14:37:47Z</time></trkpt>
<trkpt lat="49.355773926" lon="3.968469620"><ele></ele><time>2013-9-14T14:37:50Z</time></trkpt>
<trkpt lat="49.353073120" lon="3.970123291"><ele></ele><time>2013-9-14T14:37:53Z</time></trkpt>
<trkpt lat="49.351867676" lon="3.971384048"><ele></ele><time>2013-9-14T14:37:56Z</time></trkpt>
<trkpt lat="49.351509094" lon="3.971624613"><ele></ele><time>2013-9-14T14:37:59Z</time></trkpt>
<trkpt lat="49.351078033" lon="3.972214222"><ele></ele><time>2013-9-14T14:38:2Z</time></trkpt>
<trkpt lat="49.350624084" lon="3.973232985"><ele></ele><time>2013-9-14T14:38:5Z</time></trkpt>
<trkpt lat="49.349098206" lon="3.977482557"><ele></ele><time>2013-9-14T14:38:8Z</time></trkpt>
<trkpt lat="49.348644257" lon="3.978319407"><ele></ele><time>2013-9-14T14:38:11Z</time></trkpt>
<trkpt lat="49.348361969" lon="3.979373217"><ele></ele><time>2013-9-14T14:38:14Z</time></trkpt>
<trkpt lat="49.347274780" lon="3.982357025"><ele></ele><time>2013-9-14T14:38:17Z</time></trkpt>
<trkpt lat="49.346843719" lon="3.983220816"><ele></ele><time>2013-9-14T14:38:20Z</time></trkpt>
<trkpt lat="49.346347809" lon="3.984031439"><ele></ele><time>2013-9-14T14:38:23Z</time></trkpt>
<trkpt lat="49.346168518" lon="3.984258890"><ele></ele><time>2013-9-14T14:38:26Z</time></trkpt>
<trkpt lat="49.345794678" lon="3.984240532"><ele></ele><time>2013-9-14T14:38:29Z</time></trkpt>
<trkpt lat="49.345294952" lon="3.984907389"><ele></ele><time>2013-9-14T14:38:32Z</time></trkpt>
<trkpt lat="49.345027924" lon="3.985433102"><ele></ele><time>2013-9-14T14:38:35Z</time></trkpt>
<trkpt lat="49.344783783" lon="3.985675335"><ele></ele><time>2013-9-14T14:38:38Z</time></trkpt>
<trkpt lat="49.344741821" lon="3.986357212"><ele></ele><time>2013-9-14T14:38:41Z</time></trkpt>
<trkpt lat="49.342643738" lon="3.989398956"><ele></ele><time>2013-9-14T14:38:44Z</time></trkpt>
<trkpt lat="49.341770172" lon="3.990382910"><ele></ele><time>2013-9-14T14:38:47Z</time></trkpt>
<trkpt lat="49.341297150" lon="3.990711212"><ele></ele><time>2013-9-14T14:38:50Z</time></trkpt>
<trkpt lat="49.340785980" lon="3.990947485"><ele></ele><time>2013-9-14T14:38:53Z</time></trkpt>
<trkpt lat="49.340000153" lon="3.991065741"><ele></ele><time>2013-9-14T14:38:56Z</time></trkpt>
<trkpt lat="49.338901520" lon="3.990937233"><ele></ele><time>2013-9-14T14:38:59Z</time></trkpt>
<trkpt lat="49.338356018" lon="3.990947962"><ele></ele><time>2013-9-14T14:39:2Z</time></trkpt>
<trkpt lat="49.337646484" lon="3.991207600"><ele></ele><time>2013-9-14T14:39:5Z</time></trkpt>
<trkpt lat="49.336650848" lon="3.991955996"><ele></ele><time>2013-9-14T14:39:8Z</time></trkpt>
<trkpt lat="49.336208344" lon="3.992444277"><ele></ele><time>2013-9-14T14:39:11Z</time></trkpt>
<trkpt lat="49.335811615" lon="3.993022680"><ele></ele><time>2013-9-14T14:39:14Z</time></trkpt>
<trkpt lat="49.329837799" lon="4.005837440"><ele></ele><time>2013-9-14T14:39:17Z</time></trkpt>
<trkpt lat="49.329437256" lon="4.007109165"><ele></ele><time>2013-9-14T14:39:20Z</time></trkpt>
<trkpt lat="49.329254150" lon="4.008230209"><ele></ele><time>2013-9-14T14:39:23Z</time></trkpt>
<trkpt lat="49.329154968" lon="4.010011196"><ele></ele><time>2013-9-14T14:39:26Z</time></trkpt>
<trkpt lat="49.329090118" lon="4.010344028"><ele></ele><time>2013-9-14T14:39:29Z</time></trkpt>
<trkpt lat="49.328956604" lon="4.010409832"><ele></ele><time>2013-9-14T14:39:32Z</time></trkpt>
<trkpt lat="49.328933716" lon="4.010576725"><ele></ele><time>2013-9-14T14:39:35Z</time></trkpt>
<trkpt lat="49.329105377" lon="4.012243271"><ele></ele><time>2013-9-14T14:39:38Z</time></trkpt>
<trkpt lat="49.328907013" lon="4.013360500"><ele></ele><time>2013-9-14T14:39:41Z</time></trkpt>
<trkpt lat="49.328632355" lon="4.014276505"><ele></ele><time>2013-9-14T14:39:44Z</time></trkpt>
<trkpt lat="49.328277588" lon="4.014760494"><ele></ele><time>2013-9-14T14:39:47Z</time></trkpt>
<trkpt lat="49.327926636" lon="4.015533924"><ele></ele><time>2013-9-14T14:39:50Z</time></trkpt>
<trkpt lat="49.327835083" lon="4.016206741"><ele></ele><time>2013-9-14T14:39:53Z</time></trkpt>
<trkpt lat="49.327705383" lon="4.016586304"><ele></ele><time>2013-9-14T14:39:56Z</time></trkpt>
<trkpt lat="49.327423096" lon="4.017003536"><ele></ele><time>2013-9-14T14:39:59Z</time></trkpt>
<trkpt lat="49.326751709" lon="4.017719746"><ele></ele><time>2013-9-14T14:40:2Z</time></trkpt>
<trkpt lat="49.324390411" lon="4.019243240"><ele></ele><time>2013-9-14T14:40:5Z</time></trkpt>
<trkpt lat="49.324035645" lon="4.019589901"><ele></ele><time>2013-9-14T14:40:8Z</time></trkpt>
<trkpt lat="49.321784973" lon="4.021152496"><ele></ele><time>2013-9-14T14:40:11Z</time></trkpt>
<trkpt lat="49.320652008" lon="4.022065639"><ele></ele><time>2013-9-14T14:40:14Z</time></trkpt>
<trkpt lat="49.319721222" lon="4.022654533"><ele></ele><time>2013-9-14T14:40:17Z</time></trkpt>
<trkpt lat="49.319343567" lon="4.022774220"><ele></ele><time>2013-9-14T14:40:20Z</time></trkpt>
<trkpt lat="49.318401337" lon="4.022883892"><ele></ele><time>2013-9-14T14:40:23Z</time></trkpt>
<trkpt lat="49.318077087" lon="4.022857666"><ele></ele><time>2013-9-14T14:40:26Z</time></trkpt>
<trkpt lat="49.317756653" lon="4.022782803"><ele></ele><time>2013-9-14T14:40:29Z</time></trkpt>
<trkpt lat="49.317123413" lon="4.022529602"><ele></ele><time>2013-9-14T14:40:32Z</time></trkpt>
<trkpt lat="49.315933228" lon="4.021861553"><ele></ele><time>2013-9-14T14:40:35Z</time></trkpt>
<trkpt lat="49.315452576" lon="4.021481037"><ele></ele><time>2013-9-14T14:40:38Z</time></trkpt>
<trkpt lat="49.313640594" lon="4.020389557"><ele></ele><time>2013-9-14T14:40:41Z</time></trkpt>
<trkpt lat="49.313091278" lon="4.019953728"><ele></ele><time>2013-9-14T14:40:44Z</time></trkpt>
<trkpt lat="49.311737061" lon="4.019245148"><ele></ele><time>2013-9-14T14:40:47Z</time></trkpt>
<trkpt lat="49.311119080" lon="4.018848419"><ele></ele><time>2013-9-14T14:40:50Z</time></trkpt>
<trkpt lat="49.310989380" lon="4.018702030"><ele></ele><time>2013-9-14T14:40:53Z</time></trkpt>
<trkpt lat="49.308704376" lon="4.017372131"><ele></ele><time>2013-9-14T14:40:56Z</time></trkpt>
<trkpt lat="49.307628632" lon="4.016653538"><ele></ele><time>2013-9-14T14:40:59Z</time></trkpt>
<trkpt lat="49.307392120" lon="4.016431332"><ele></ele><time>2013-9-14T14:41:2Z</time></trkpt>
<trkpt lat="49.307350159" lon="4.016526699"><ele></ele><time>2013-9-14T14:41:5Z</time></trkpt>
<trkpt lat="49.307277679" lon="4.016492367"><ele></ele><time>2013-9-14T14:41:8Z</time></trkpt>
<trkpt lat="49.306987762" lon="4.016247272"><ele></ele><time>2013-9-14T14:41:11Z</time></trkpt>
<trkpt lat="49.305698395" lon="4.015463352"><ele></ele><time>2013-9-14T14:41:14Z</time></trkpt>
<trkpt lat="49.305194855" lon="4.015221596"><ele></ele><time>2013-9-14T14:41:17Z</time></trkpt>
<trkpt lat="49.303035736" lon="4.013785362"><ele></ele><time>2013-9-14T14:41:20Z</time></trkpt>
<trkpt lat="49.302352905" lon="4.013432980"><ele></ele><time>2013-9-14T14:41:23Z</time></trkpt>
<trkpt lat="49.300659180" lon="4.012331486"><ele></ele><time>2013-9-14T14:41:26Z</time></trkpt>
<trkpt lat="49.299942017" lon="4.011979580"><ele></ele><time>2013-9-14T14:41:29Z</time></trkpt>
<trkpt lat="49.299507141" lon="4.011635303"><ele></ele><time>2013-9-14T14:41:32Z</time></trkpt>
<trkpt lat="49.298072815" lon="4.010743618"><ele></ele><time>2013-9-14T14:41:35Z</time></trkpt>
<trkpt lat="49.297657013" lon="4.010545731"><ele></ele><time>2013-9-14T14:41:38Z</time></trkpt>
<trkpt lat="49.296401978" lon="4.009599209"><ele></ele><time>2013-9-14T14:41:41Z</time></trkpt>
<trkpt lat="49.295894623" lon="4.009119511"><ele></ele><time>2013-9-14T14:41:44Z</time></trkpt>
<trkpt lat="49.295593262" lon="4.008730412"><ele></ele><time>2013-9-14T14:41:47Z</time></trkpt>
<trkpt lat="49.295139313" lon="4.008356094"><ele></ele><time>2013-9-14T14:41:50Z</time></trkpt>
<trkpt lat="49.294269562" lon="4.007294655"><ele></ele><time>2013-9-14T14:41:53Z</time></trkpt>
<trkpt lat="49.293212891" lon="4.005090237"><ele></ele><time>2013-9-14T14:41:56Z</time></trkpt>
<trkpt lat="49.293197632" lon="4.004050732"><ele></ele><time>2013-9-14T14:41:59Z</time></trkpt>
<trkpt lat="49.292720795" lon="4.002763271"><ele></ele><time>2013-9-14T14:42:2Z</time></trkpt>
<trkpt lat="49.292190552" lon="4.002678871"><ele></ele><time>2013-9-14T14:42:5Z</time></trkpt>
<trkpt lat="49.292041779" lon="4.002513885"><ele></ele><time>2013-9-14T14:42:8Z</time></trkpt>
<trkpt lat="49.291618347" lon="4.001423359"><ele></ele><time>2013-9-14T14:42:11Z</time></trkpt>
<trkpt lat="49.291221619" lon="4.000747681"><ele></ele><time>2013-9-14T14:42:14Z</time></trkpt>
<trkpt lat="49.290790558" lon="4.000191212"><ele></ele><time>2013-9-14T14:42:17Z</time></trkpt>
<trkpt lat="49.290348053" lon="3.999756336"><ele></ele><time>2013-9-14T14:42:20Z</time></trkpt>
<trkpt lat="49.289646149" lon="3.999237537"><ele></ele><time>2013-9-14T14:42:23Z</time></trkpt>
<trkpt lat="49.288455963" lon="3.998638868"><ele></ele><time>2013-9-14T14:42:26Z</time></trkpt>
<trkpt lat="49.283576965" lon="3.995804548"><ele></ele><time>2013-9-14T14:42:29Z</time></trkpt>
<trkpt lat="49.283157349" lon="3.995705843"><ele></ele><time>2013-9-14T14:42:32Z</time></trkpt>
<trkpt lat="49.282485962" lon="3.995667696"><ele></ele><time>2013-9-14T14:42:35Z</time></trkpt>
<trkpt lat="49.278102875" lon="3.996161699"><ele></ele><time>2013-9-14T14:42:38Z</time></trkpt>
<trkpt lat="49.277664185" lon="3.996261120"><ele></ele><time>2013-9-14T14:42:41Z</time></trkpt>
<trkpt lat="49.276718140" lon="3.996257544"><ele></ele><time>2013-9-14T14:42:44Z</time></trkpt>
<trkpt lat="49.276226044" lon="3.996022940"><ele></ele><time>2013-9-14T14:42:47Z</time></trkpt>
<trkpt lat="49.275852203" lon="3.995995760"><ele></ele><time>2013-9-14T14:42:50Z</time></trkpt>
<trkpt lat="49.274406433" lon="3.996134520"><ele></ele><time>2013-9-14T14:42:53Z</time></trkpt>
<trkpt lat="49.273338318" lon="3.996319056"><ele></ele><time>2013-9-14T14:42:56Z</time></trkpt>
<trkpt lat="49.272838593" lon="3.996715069"><ele></ele><time>2013-9-14T14:42:59Z</time></trkpt>
<trkpt lat="49.272583008" lon="3.996767759"><ele></ele><time>2013-9-14T14:43:2Z</time></trkpt>
<trkpt lat="49.268268585" lon="3.997232676"><ele></ele><time>2013-9-14T14:43:5Z</time></trkpt>
<trkpt lat="49.267177582" lon="3.997571707"><ele></ele><time>2013-9-14T14:43:8Z</time></trkpt>
<trkpt lat="49.266651154" lon="3.997843266"><ele></ele><time>2013-9-14T14:43:11Z</time></trkpt>
<trkpt lat="49.265953064" lon="3.998358488"><ele></ele><time>2013-9-14T14:43:14Z</time></trkpt>
<trkpt lat="49.264949799" lon="3.999461889"><ele></ele><time>2013-9-14T14:43:17Z</time></trkpt>
<trkpt lat="49.263183594" lon="4.002470016"><ele></ele><time>2013-9-14T14:43:20Z</time></trkpt>
<trkpt lat="49.263015747" lon="4.002886772"><ele></ele><time>2013-9-14T14:43:23Z</time></trkpt>
<trkpt lat="49.262210846" lon="4.004003525"><ele></ele><time>2013-9-14T14:43:26Z</time></trkpt>
<trkpt lat="49.259021759" lon="4.009059906"><ele></ele><time>2013-9-14T14:43:29Z</time></trkpt>
<trkpt lat="49.256626129" lon="4.012646198"><ele></ele><time>2013-9-14T14:43:32Z</time></trkpt>
<trkpt lat="49.256156921" lon="4.013538361"><ele></ele><time>2013-9-14T14:43:35Z</time></trkpt>
<trkpt lat="49.255146027" lon="4.015171051"><ele></ele><time>2013-9-14T14:43:38Z</time></trkpt>
<trkpt lat="49.254035950" lon="4.016733170"><ele></ele><time>2013-9-14T14:43:41Z</time></trkpt>
<trkpt lat="49.253944397" lon="4.017167091"><ele></ele><time>2013-9-14T14:43:44Z</time></trkpt>
<trkpt lat="49.253364563" lon="4.017958164"><ele></ele><time>2013-9-14T14:43:47Z</time></trkpt>
<trkpt lat="49.253265381" lon="4.018242359"><ele></ele><time>2013-9-14T14:43:50Z</time></trkpt>
<trkpt lat="49.253284454" lon="4.018419743"><ele></ele><time>2013-9-14T14:43:53Z</time></trkpt>
<trkpt lat="49.252571106" lon="4.019241333"><ele></ele><time>2013-9-14T14:43:56Z</time></trkpt>
<trkpt lat="49.251651764" lon="4.020593166"><ele></ele><time>2013-9-14T14:43:59Z</time></trkpt>
<trkpt lat="49.251514435" lon="4.020939827"><ele></ele><time>2013-9-14T14:44:2Z</time></trkpt>
<trkpt lat="49.250556946" lon="4.022499084"><ele></ele><time>2013-9-14T14:44:5Z</time></trkpt>
<trkpt lat="49.249649048" lon="4.023795605"><ele></ele><time>2013-9-14T14:44:8Z</time></trkpt>
<trkpt lat="49.249126434" lon="4.024355412"><ele></ele><time>2013-9-14T14:44:11Z</time></trkpt>
<trkpt lat="49.247249603" lon="4.027248383"><ele></ele><time>2013-9-14T14:44:14Z</time></trkpt>
<trkpt lat="49.246414185" lon="4.028631210"><ele></ele><time>2013-9-14T14:44:17Z</time></trkpt>
<trkpt lat="49.245479584" lon="4.030433178"><ele></ele><time>2013-9-14T14:44:20Z</time></trkpt>
<trkpt lat="49.244823456" lon="4.031264305"><ele></ele><time>2013-9-14T14:44:23Z</time></trkpt>
<trkpt lat="49.244621277" lon="4.031823158"><ele></ele><time>2013-9-14T14:44:26Z</time></trkpt>
<trkpt lat="49.243824005" lon="4.032882690"><ele></ele><time>2013-9-14T14:44:29Z</time></trkpt>
<trkpt lat="49.243579865" lon="4.033430099"><ele></ele><time>2013-9-14T14:44:32Z</time></trkpt>
<trkpt lat="49.242832184" lon="4.034079552"><ele></ele><time>2013-9-14T14:44:35Z</time></trkpt>
<trkpt lat="49.242710114" lon="4.034328461"><ele></ele><time>2013-9-14T14:44:38Z</time></trkpt>
<trkpt lat="49.242343903" lon="4.034617901"><ele></ele><time>2013-9-14T14:44:41Z</time></trkpt>
<trkpt lat="49.241886139" lon="4.035245419"><ele></ele><time>2013-9-14T14:44:44Z</time></trkpt>
<trkpt lat="49.240734100" lon="4.036438942"><ele></ele><time>2013-9-14T14:44:47Z</time></trkpt>
<trkpt lat="49.239006042" lon="4.038512230"><ele></ele><time>2013-9-14T14:44:50Z</time></trkpt>
<trkpt lat="49.238285065" lon="4.039260864"><ele></ele><time>2013-9-14T14:44:53Z</time></trkpt>
<trkpt lat="49.237747192" lon="4.039781094"><ele></ele><time>2013-9-14T14:44:56Z</time></trkpt>
<trkpt lat="49.236381531" lon="4.040820122"><ele></ele><time>2013-9-14T14:44:59Z</time></trkpt>
<trkpt lat="49.236274719" lon="4.041012764"><ele></ele><time>2013-9-14T14:45:2Z</time></trkpt>
<trkpt lat="49.235820770" lon="4.041472435"><ele></ele><time>2013-9-14T14:45:5Z</time></trkpt>
<trkpt lat="49.235477448" lon="4.042130470"><ele></ele><time>2013-9-14T14:45:8Z</time></trkpt>
<trkpt lat="49.234512329" lon="4.043290138"><ele></ele><time>2013-9-14T14:45:11Z</time></trkpt>
<trkpt lat="49.233451843" lon="4.045691013"><ele></ele><time>2013-9-14T14:45:14Z</time></trkpt>
<trkpt lat="49.232749939" lon="4.048266888"><ele></ele><time>2013-9-14T14:45:17Z</time></trkpt>
<trkpt lat="49.231334686" lon="4.048355103"><ele></ele><time>2013-9-14T14:45:20Z</time></trkpt>
<trkpt lat="49.231071472" lon="4.048458099"><ele></ele><time>2013-9-14T14:45:23Z</time></trkpt>
<trkpt lat="49.230907440" lon="4.048707485"><ele></ele><time>2013-9-14T14:45:26Z</time></trkpt>
<trkpt lat="49.230392456" lon="4.050109386"><ele></ele><time>2013-9-14T14:45:29Z</time></trkpt>
<trkpt lat="49.229766846" lon="4.051281929"><ele></ele><time>2013-9-14T14:45:32Z</time></trkpt>
<trkpt lat="49.229587555" lon="4.051513195"><ele></ele><time>2013-9-14T14:45:35Z</time></trkpt>
<trkpt lat="49.228816986" lon="4.052245140"><ele></ele><time>2013-9-14T14:45:38Z</time></trkpt>
<trkpt lat="49.227100372" lon="4.053451061"><ele></ele><time>2013-9-14T14:45:41Z</time></trkpt>
<trkpt lat="49.226856232" lon="4.053479671"><ele></ele><time>2013-9-14T14:45:44Z</time></trkpt>
<trkpt lat="49.226528168" lon="4.053275585"><ele></ele><time>2013-9-14T14:45:47Z</time></trkpt>
<trkpt lat="49.225715637" lon="4.052531242"><ele></ele><time>2013-9-14T14:45:50Z</time></trkpt>
<trkpt lat="49.225246429" lon="4.052368164"><ele></ele><time>2013-9-14T14:45:53Z</time></trkpt>
<trkpt lat="49.225093842" lon="4.052516460"><ele></ele><time>2013-9-14T14:45:56Z</time></trkpt>
<trkpt lat="49.224891663" lon="4.052962303"><ele></ele><time>2013-9-14T14:45:59Z</time></trkpt>
<trkpt lat="49.224731445" lon="4.052996635"><ele></ele><time>2013-9-14T14:46:2Z</time></trkpt>
<trkpt lat="49.224563599" lon="4.052923679"><ele></ele><time>2013-9-14T14:46:5Z</time></trkpt>
<trkpt lat="49.224388123" lon="4.052973747"><ele></ele><time>2013-9-14T14:46:8Z</time></trkpt>
<trkpt lat="49.224212646" lon="4.053127289"><ele></ele><time>2013-9-14T14:46:11Z</time></trkpt>
<trkpt lat="49.223999023" lon="4.053182125"><ele></ele><time>2013-9-14T14:46:14Z</time></trkpt>
<trkpt lat="49.223850250" lon="4.053385735"><ele></ele><time>2013-9-14T14:46:17Z</time></trkpt>
<trkpt lat="49.223381042" lon="4.054243565"><ele></ele><time>2013-9-14T14:46:20Z</time></trkpt>
<trkpt lat="49.222732544" lon="4.055922031"><ele></ele><time>2013-9-14T14:46:23Z</time></trkpt>
<trkpt lat="49.222427368" lon="4.056935310"><ele></ele><time>2013-9-14T14:46:26Z</time></trkpt>
<trkpt lat="49.221954346" lon="4.058046341"><ele></ele><time>2013-9-14T14:46:29Z</time></trkpt>
<trkpt lat="49.221561432" lon="4.059429646"><ele></ele><time>2013-9-14T14:46:32Z</time></trkpt>
<trkpt lat="49.220596313" lon="4.061970711"><ele></ele><time>2013-9-14T14:46:35Z</time></trkpt>
<trkpt lat="49.220230103" lon="4.063582420"><ele></ele><time>2013-9-14T14:46:38Z</time></trkpt>
<trkpt lat="49.220046997" lon="4.063755035"><ele></ele><time>2013-9-14T14:46:41Z</time></trkpt>
<trkpt lat="49.220100403" lon="4.064355373"><ele></ele><time>2013-9-14T14:46:44Z</time></trkpt>
<trkpt lat="49.219802856" lon="4.065774441"><ele></ele><time>2013-9-14T14:46:47Z</time></trkpt>
<trkpt lat="49.219295502" lon="4.065772533"><ele></ele><time>2013-9-14T14:46:50Z</time></trkpt>
</trkseg></trk></gpx>